Time;durP1;ratioP1;P1;durP2;ratioP2;P2;SDS_P1;SDS_P2;PMS_P1;PMS_P2;Temp;Humidity;BMP_temperature;BMP_pressure;BME280_temperature;BME280_humidity;BME280_pressure;Samples;Min_cycle;Max_cycle;Signal;HPM_P1;HPM_P2
2022/07/08 00:00:21;;;;;;;8.43;2.33;;;;;;;13.88;79.32;101746.66;5073612;28;20624;-77
2022/07/08 00:02:47;;;;;;;8.77;2.60;;;;;;;13.87;79.55;101753.66;5073641;28;20212;-77
2022/07/08 00:05:14;;;;;;;10.00;2.67;;;;;;;13.85;79.57;101744.03;5073555;28;20299;-78
2022/07/08 00:07:41;;;;;;;6.77;2.07;;;;;;;13.89;79.08;101749.25;5078932;28;20226;-78
2022/07/08 00:10:08;;;;;;;9.50;2.50;;;;;;;13.72;79.43;101745.94;5087896;28;20252;-79
2022/07/08 00:12:35;;;;;;;11.00;3.03;;;;;;;13.73;79.68;101734.56;5093506;28;20203;-77
2022/07/08 00:15:03;;;;;;;5.40;1.97;;;;;;;13.58;79.92;101737.38;5093467;28;20268;-77
2022/07/08 00:17:30;;;;;;;5.77;2.17;;;;;;;13.61;80.27;101721.56;5093365;28;20231;-78
2022/07/08 00:19:56;;;;;;;7.30;2.33;;;;;;;13.58;80.25;101738.22;5093476;28;20218;-78
2022/07/08 00:22:23;;;;;;;6.20;1.70;;;;;;;13.48;80.50;101742.69;5093441;28;20210;-78
2022/07/08 00:24:49;;;;;;;9.50;2.47;;;;;;;13.42;80.53;101732.28;5092795;28;20551;-78
2022/07/08 00:27:16;;;;;;;9.73;2.80;;;;;;;13.47;80.06;101730.44;5092960;28;20253;-78
2022/07/08 00:29:42;;;;;;;6.83;2.17;;;;;;;13.44;80.09;101737.50;5093253;28;20618;-78
2022/07/08 00:32:10;;;;;;;8.23;2.00;;;;;;;13.54;79.73;101748.75;5093205;28;20793;-77
2022/07/08 00:34:36;;;;;;;9.00;2.07;;;;;;;13.53;80.26;101750.50;5093378;28;20299;-77
2022/07/08 00:37:03;;;;;;;6.63;2.20;;;;;;;13.45;80.37;101752.34;5087768;28;20236;-78
2022/07/08 00:39:30;;;;;;;6.00;2.47;;;;;;;13.39;79.98;101752.41;5084503;28;20210;-77
2022/07/08 00:41:57;;;;;;;9.10;2.60;;;;;;;13.38;79.76;101764.66;5093083;28;20218;-78
2022/07/08 00:44:23;;;;;;;6.20;1.80;;;;;;;13.37;79.91;101770.78;5093268;28;20208;-77
2022/07/08 00:46:50;;;;;;;5.50;2.17;;;;;;;13.38;79.88;101774.25;5092489;28;20215;-77
2022/07/08 00:49:17;;;;;;;10.43;2.20;;;;;;;13.33;80.44;101765.59;5092955;28;20214;-78
2022/07/08 00:51:44;;;;;;;7.97;2.27;;;;;;;13.29;80.65;101756.81;5093031;28;20211;-77
2022/07/08 00:54:14;;;;;;;5.73;1.70;;;;;;;13.27;80.64;101755.97;5093058;28;20262;-78
2022/07/08 00:56:42;;;;;;;6.97;1.73;;;;;;;13.30;80.73;101763.88;5092349;28;20214;-77
2022/07/08 00:59:09;;;;;;;7.57;2.40;;;;;;;13.35;80.48;101767.28;5092630;28;20293;-79
2022/07/08 01:01:36;;;;;;;7.67;2.27;;;;;;;13.36;79.96;101779.53;5092667;28;20618;-78
2022/07/08 01:04:03;;;;;;;6.87;2.33;;;;;;;13.37;80.06;101793.50;5092713;28;20209;-77
2022/07/08 01:06:31;;;;;;;6.10;1.67;;;;;;;13.25;80.35;101776.97;5086799;28;20213;-78
2022/07/08 01:08:58;;;;;;;6.40;2.10;;;;;;;13.22;80.65;101781.34;5084361;28;20290;-77
2022/07/08 01:11:25;;;;;;;6.73;2.57;;;;;;;13.21;80.48;101784.88;5092490;28;20218;-77
2022/07/08 01:13:52;;;;;;;5.23;1.77;;;;;;;13.12;81.39;101772.69;5092115;28;20210;-78
2022/07/08 01:16:19;;;;;;;7.13;2.17;;;;;;;13.01;81.53;101753.56;5092141;28;20260;-78
2022/07/08 01:18:46;;;;;;;5.27;1.80;;;;;;;13.06;81.35;101755.28;5092433;28;20283;-77
2022/07/08 01:21:13;;;;;;;4.43;1.83;;;;;;;12.99;81.60;101748.34;5092477;28;20203;-77
2022/07/08 01:23:40;;;;;;;6.50;1.80;;;;;;;12.86;82.54;101734.47;5092506;28;20638;-78
2022/07/08 01:26:10;;;;;;;8.33;2.83;;;;;;;12.86;82.70;101712.63;5091586;28;20217;-77
2022/07/08 01:28:37;;;;;;;8.43;2.20;;;;;;;12.93;82.44;101711.69;5092130;28;20273;-77
2022/07/08 01:31:04;;;;;;;11.90;3.03;;;;;;;12.84;83.17;101707.41;5092169;28;20625;-77
2022/07/08 01:33:31;;;;;;;8.93;2.80;;;;;;;12.80;83.42;101695.19;5092472;28;20203;-77
2022/07/08 01:35:57;;;;;;;9.07;2.00;;;;;;;12.66;83.99;101682.19;5092095;28;20208;-78
2022/07/08 01:38:25;;;;;;;8.77;3.03;;;;;;;12.71;84.10;101663.84;5078211;28;20795;-77
2022/07/08 01:40:51;;;;;;;6.70;2.20;;;;;;;12.73;84.55;101659.47;5092036;28;20211;-77
2022/07/08 01:43:18;;;;;;;6.50;2.07;;;;;;;12.59;85.00;101643.84;5091920;28;20214;-77
2022/07/08 01:45:45;;;;;;;10.00;3.20;;;;;;;12.55;85.10;101644.75;5091994;28;20297;-79
2022/07/08 01:48:11;;;;;;;6.30;1.87;;;;;;;12.44;86.12;101620.38;5091908;28;20566;-78
2022/07/08 01:50:38;;;;;;;7.23;2.53;;;;;;;12.42;85.73;101616.91;5092187;28;20228;-77
2022/07/08 01:53:05;;;;;;;6.93;2.40;;;;;;;12.40;86.07;101610.81;5091717;28;20617;-78
2022/07/08 01:55:32;;;;;;;8.00;2.20;;;;;;;12.38;85.91;101613.44;5091450;28;20236;-77
2022/07/08 01:57:59;;;;;;;7.70;2.63;;;;;;;12.41;85.74;101623.06;5091669;28;20275;-78
2022/07/08 02:00:25;;;;;;;5.47;2.17;;;;;;;12.46;85.50;101645.69;5092029;28;20217;-77
2022/07/08 02:02:52;;;;;;;5.33;1.93;;;;;;;12.51;84.72;101651.75;5091567;28;20660;-77
2022/07/08 02:05:18;;;;;;;9.20;2.40;;;;;;;12.59;84.46;101672.66;5091572;28;20240;-78
2022/07/08 02:07:45;;;;;;;8.33;2.10;;;;;;;12.67;84.24;101680.47;5083449;28;20276;-78
2022/07/08 02:10:11;;;;;;;8.97;2.37;;;;;;;12.70;83.91;101693.53;5086983;28;20203;-77
2022/07/08 02:12:38;;;;;;;5.97;2.07;;;;;;;12.67;83.85;101702.28;5091779;28;20260;-78
2022/07/08 02:15:07;;;;;;;7.10;2.43;;;;;;;12.64;84.02;101699.69;5091839;28;20278;-78
2022/07/08 02:17:36;;;;;;;5.30;2.07;;;;;;;12.67;84.31;101694.44;5093744;28;20752;-77
2022/07/08 02:20:04;;;;;;;4.23;1.70;;;;;;;12.67;84.06;101704.06;5096011;28;20207;-77
2022/07/08 02:22:31;;;;;;;7.93;1.90;;;;;;;12.64;84.17;101696.19;5096029;28;20211;-77
2022/07/08 02:24:57;;;;;;;10.03;2.50;;;;;;;12.62;84.77;101697.97;5095364;28;20676;-78
2022/07/08 02:27:23;;;;;;;7.93;1.83;;;;;;;12.61;84.39;101691.00;5094992;28;20642;-78
2022/07/08 02:29:51;;;;;;;8.97;2.23;;;;;;;12.48;85.10;101687.56;5095537;28;20675;-77
2022/07/08 02:32:18;;;;;;;5.20;2.70;;;;;;;12.40;85.36;101682.38;5095213;28;20260;-78
2022/07/08 02:34:44;;;;;;;9.60;2.23;;;;;;;12.40;85.68;101660.56;5095496;28;20219;-78
2022/07/08 02:37:13;;;;;;;7.57;2.63;;;;;;;12.28;86.13;101643.19;5090179;28;20779;-78
2022/07/08 02:39:39;;;;;;;7.70;2.47;;;;;;;12.28;86.62;101633.59;5086669;28;20208;-77
2022/07/08 02:42:06;;;;;;;6.50;2.10;;;;;;;12.25;86.67;101641.47;5095680;28;20336;-76
2022/07/08 02:44:34;;;;;;;6.13;2.37;;;;;;;12.26;86.77;101637.09;5095368;28;20198;-78
2022/07/08 02:47:02;;;;;;;5.00;2.10;;;;;;;12.20;86.54;101639.75;5094896;28;20206;-79
2022/07/08 02:49:28;;;;;;;8.63;2.00;;;;;;;12.17;86.64;101639.78;5095534;28;20555;-77
2022/07/08 02:51:55;;;;;;;8.23;1.87;;;;;;;12.12;87.00;101638.06;5095149;28;20203;-76
2022/07/08 02:54:21;;;;;;;5.83;2.40;;;;;;;12.07;87.48;101626.75;5094903;28;20259;-78
2022/07/08 02:56:48;;;;;;;10.60;2.07;;;;;;;12.13;87.21;101636.31;5094649;28;20713;-78
2022/07/08 02:59:14;;;;;;;5.37;2.10;;;;;;;12.04;87.35;101631.13;5094678;28;20644;-77
2022/07/08 03:01:41;;;;;;;4.50;2.07;;;;;;;12.03;87.88;101624.16;5094966;28;20688;-77
2022/07/08 03:04:08;;;;;;;7.90;2.70;;;;;;;12.03;87.43;101621.53;5094871;28;20635;-77
2022/07/08 03:06:35;;;;;;;7.83;2.90;;;;;;;12.03;87.36;101635.50;5089394;28;20667;-79
2022/07/08 03:09:01;;;;;;;9.07;2.27;;;;;;;11.99;87.53;101636.41;5086275;28;20218;-78
2022/07/08 03:11:28;;;;;;;5.07;1.90;;;;;;;11.98;87.95;101625.94;5095018;28;20276;-77
2022/07/08 03:13:54;;;;;;;9.13;2.53;;;;;;;12.02;87.30;101638.13;5094473;28;20616;-78
2022/07/08 03:16:21;;;;;;;10.37;3.13;;;;;;;12.07;87.04;101644.19;5094760;28;20256;-78
2022/07/08 03:18:47;;;;;;;7.37;2.10;;;;;;;12.07;86.78;101657.28;5094670;28;20257;-77
2022/07/08 03:21:15;;;;;;;6.23;2.00;;;;;;;12.10;86.82;101662.50;5094892;28;20214;-78
2022/07/08 03:23:42;;;;;;;8.67;2.10;;;;;;;12.09;86.70;101661.66;5094645;28;20252;-78
2022/07/08 03:26:08;;;;;;;9.50;2.33;;;;;;;12.11;86.83;101674.72;5094130;28;20211;-77
2022/07/08 03:28:35;;;;;;;4.63;1.60;;;;;;;12.09;86.67;101673.84;5093765;28;20230;-78
2022/07/08 03:31:01;;;;;;;10.67;2.00;;;;;;;12.20;86.42;101677.28;5094387;28;20236;-78
2022/07/08 03:33:28;;;;;;;4.47;1.67;;;;;;;12.17;86.46;101685.16;5094781;28;20229;-77
2022/07/08 03:35:54;;;;;;;5.67;2.00;;;;;;;12.14;87.10;101673.84;5094191;28;20207;-77
2022/07/08 03:38:22;;;;;;;7.10;2.40;;;;;;;12.23;86.92;101673.75;5080870;28;20237;-77
2022/07/08 03:43:32;;;;;;;5.60;2.00;;;;;;;12.20;87.21;101663.31;5053681;28;20215;-78
2022/07/08 03:45:59;;;;;;;11.37;2.87;;;;;;;12.28;87.17;101667.63;5053870;28;20207;-78
2022/07/08 03:48:25;;;;;;;8.03;2.00;;;;;;;12.33;87.33;101678.09;5053901;28;20235;-78
2022/07/08 03:50:52;;;;;;;6.43;2.33;;;;;;;12.37;86.87;101677.19;5053777;28;20693;-78
2022/07/08 03:53:18;;;;;;;12.63;2.53;;;;;;;12.41;86.92;101688.53;5053881;28;20607;-78
2022/07/08 03:55:47;;;;;;;8.27;2.20;;;;;;;12.41;86.93;101701.59;5053396;28;20257;-78
2022/07/08 03:58:13;;;;;;;9.10;2.20;;;;;;;12.43;87.10;101702.47;5053500;28;20264;-78
2022/07/08 04:00:40;;;;;;;6.70;2.07;;;;;;;12.34;87.46;101698.13;5053696;28;20728;-78
2022/07/08 04:03:06;;;;;;;5.50;2.73;;;;;;;12.35;87.82;101688.53;5053462;28;20257;-78
2022/07/08 04:05:32;;;;;;;4.40;2.40;;;;;;;12.36;87.97;101685.91;5053208;28;20575;-78
2022/07/08 04:07:59;;;;;;;8.03;2.40;;;;;;;12.40;87.77;101692.88;5075079;28;20220;-78
2022/07/08 04:10:25;;;;;;;10.60;2.67;;;;;;;12.43;87.32;101697.22;5091000;28;20210;-78
2022/07/08 04:12:53;;;;;;;6.80;2.20;;;;;;;12.46;87.14;101721.63;5093353;28;20814;-77
2022/07/08 04:15:20;;;;;;;6.80;1.70;;;;;;;12.51;87.00;101732.97;5093223;28;20210;-77
2022/07/08 04:17:46;;;;;;;8.50;1.90;;;;;;;12.58;86.88;101736.41;5093635;28;20226;-78
2022/07/08 04:20:13;;;;;;;5.83;2.20;;;;;;;12.59;87.22;101740.78;5093401;28;20211;-78
2022/07/08 04:22:40;;;;;;;7.13;2.00;;;;;;;12.61;87.07;101743.38;5093588;28;20205;-77
2022/07/08 04:25:07;;;;;;;6.43;1.80;;;;;;;12.62;86.78;101764.31;5093219;28;20570;-77
2022/07/08 04:27:34;;;;;;;9.83;2.77;;;;;;;12.66;86.79;101755.53;5092627;28;20304;-78
2022/07/08 04:30:02;;;;;;;6.57;1.93;;;;;;;12.69;86.41;101760.78;5093744;28;20200;-77
2022/07/08 04:32:28;;;;;;;6.50;1.83;;;;;;;12.71;86.12;101771.25;5093163;28;20207;-77
2022/07/08 04:34:58;;;;;;;11.47;1.90;;;;;;;12.70;86.78;101783.50;5093003;28;20213;-78
2022/07/08 04:37:24;;;;;;;5.43;2.23;;;;;;;12.71;86.18;101772.13;5087699;28;20280;-78
2022/07/08 04:39:51;;;;;;;8.17;1.77;;;;;;;12.86;85.50;101788.63;5084559;28;20223;-76
2022/07/08 04:42:17;;;;;;;4.13;1.70;;;;;;;12.86;84.59;101814.81;5093052;28;20215;-77
2022/07/08 04:44:44;;;;;;;8.63;2.53;;;;;;;12.92;83.97;101846.22;5092635;28;20431;-78
2022/07/08 04:47:12;;;;;;;11.50;2.57;;;;;;;12.95;83.22;101871.56;5092908;28;20228;-78
2022/07/08 04:49:38;;;;;;;8.43;2.50;;;;;;;13.02;82.97;101891.59;5092691;28;20202;-78
2022/07/08 04:52:06;;;;;;;8.00;1.93;;;;;;;13.04;82.83;101900.34;5093182;28;20211;-77
2022/07/08 04:54:33;;;;;;;4.10;2.17;;;;;;;13.00;83.13;101890.75;5093078;28;20643;-77
2022/07/08 04:56:59;;;;;;;6.40;2.00;;;;;;;13.10;83.48;101879.31;5092410;28;20271;-77
2022/07/08 04:59:26;;;;;;;9.53;1.93;;;;;;;13.18;83.58;101881.91;5092172;28;20280;-78
2022/07/08 05:01:52;;;;;;;4.50;1.60;;;;;;;13.21;83.34;101880.13;5092980;28;20208;-77
2022/07/08 05:04:20;;;;;;;5.80;1.90;;;;;;;13.25;84.05;101873.13;5092560;28;20669;-76
2022/07/08 05:06:47;;;;;;;13.00;2.57;;;;;;;13.30;83.13;101871.38;5086947;28;20608;-77
2022/07/08 05:09:14;;;;;;;7.87;2.80;;;;;;;13.37;82.39;101893.19;5084167;28;20265;-77
2022/07/08 05:11:41;;;;;;;4.30;2.07;;;;;;;13.34;83.51;101903.69;5092777;28;20207;-79
2022/07/08 05:14:07;;;;;;;8.80;2.27;;;;;;;13.38;83.02;101905.41;5092481;28;20264;-77
2022/07/08 05:16:34;;;;;;;6.30;1.77;;;;;;;13.48;83.31;101897.47;5092417;28;20261;-77
2022/07/08 05:19:00;;;;;;;6.33;1.83;;;;;;;13.41;83.32;101890.50;5092252;28;20748;-76
2022/07/08 05:21:28;;;;;;;5.77;1.80;;;;;;;13.45;82.88;101896.63;5092097;28;20684;-78
2022/07/08 05:23:55;;;;;;;6.43;2.10;;;;;;;13.47;81.18;101937.69;5092587;28;20209;-77
2022/07/08 05:26:21;;;;;;;7.37;1.90;;;;;;;13.55;81.25;101971.75;5074003;28;20809;-77
2022/07/08 05:28:48;;;;;;;5.03;1.50;;;;;;;13.59;81.05;101978.72;5061049;28;20621;-78
2022/07/08 05:31:14;;;;;;;5.93;1.80;;;;;;;13.64;79.70;102011.03;5062420;28;20208;-77
2022/07/08 05:33:40;;;;;;;4.03;1.73;;;;;;;13.70;78.74;102031.13;5061348;28;20204;-76
2022/07/08 05:36:07;;;;;;;5.03;2.43;;;;;;;13.72;78.12;102057.38;5060680;28;20207;-76
2022/07/08 05:38:35;;;;;;;6.17;1.70;;;;;;;13.77;77.66;102076.56;5069617;28;20284;-76
2022/07/08 05:41:02;;;;;;;7.50;1.77;;;;;;;13.78;77.49;102094.06;5060342;28;20236;-77
2022/07/08 05:43:28;;;;;;;5.53;1.60;;;;;;;13.77;77.88;102097.56;5061658;28;20205;-77
2022/07/08 05:45:54;;;;;;;5.40;1.37;;;;;;;13.79;77.96;102080.06;5059796;28;20262;-77
2022/07/08 05:48:21;;;;;;;4.43;1.43;;;;;;;13.83;77.65;102093.16;5062973;28;20219;-77
2022/07/08 05:50:48;;;;;;;6.60;1.80;;;;;;;13.78;78.39;102081.81;5061080;28;20696;-77
2022/07/08 05:53:16;;;;;;;4.27;1.53;;;;;;;13.74;78.69;102064.34;5063397;28;20208;-78
2022/07/08 05:55:44;;;;;;;4.57;2.30;;;;;;;13.83;77.94;102084.41;5060873;28;20295;-78
2022/07/08 05:58:10;;;;;;;4.10;1.50;;;;;;;13.82;77.29;102104.53;5059794;28;20704;-77
2022/07/08 06:00:38;;;;;;;9.73;1.50;;;;;;;13.85;76.92;102098.41;5060213;28;20677;-77
2022/07/08 06:03:05;;;;;;;6.70;1.50;;;;;;;13.96;77.15;102112.34;5061263;28;20207;-77
2022/07/08 06:05:31;;;;;;;4.90;1.33;;;;;;;13.96;76.82;102114.97;5061989;28;20200;-76
2022/07/08 06:07:58;;;;;;;4.70;1.50;;;;;;;13.93;77.41;102120.22;5067277;28;20227;-77
2022/07/08 06:10:26;;;;;;;4.93;1.60;;;;;;;13.97;76.67;102121.06;5064053;28;20557;-77
2022/07/08 06:12:54;;;;;;;6.57;1.63;;;;;;;14.01;77.08;102112.28;5062009;28;20269;-77
2022/07/08 06:15:21;;;;;;;5.63;1.33;;;;;;;14.09;77.45;102105.25;5060659;28;20285;-77
2022/07/08 06:17:47;;;;;;;3.20;1.27;;;;;;;14.11;77.43;102116.59;5060602;28;20216;-77
2022/07/08 06:20:14;;;;;;;3.40;1.60;;;;;;;14.25;75.98;102127.00;5062170;28;20576;-77
2022/07/08 06:22:40;;;;;;;3.30;1.53;;;;;;;14.15;76.67;102133.22;5060899;28;20280;-77
2022/07/08 06:25:08;;;;;;;2.07;1.50;;;;;;;14.15;77.25;102136.72;5060546;28;20221;-77
2022/07/08 06:27:35;;;;;;;5.30;1.67;;;;;;;14.10;76.41;102147.25;5062804;28;20221;-77
2022/07/08 06:30:04;;;;;;;7.80;1.30;;;;;;;14.14;75.54;102171.75;5061538;28;20203;-78
2022/07/08 06:32:30;;;;;;;2.93;1.20;;;;;;;14.14;74.63;102190.13;5061812;28;20247;-77
2022/07/08 06:34:57;;;;;;;3.27;1.20;;;;;;;14.11;75.44;102198.00;5061824;28;20693;-79
2022/07/08 06:37:23;;;;;;;4.43;1.30;;;;;;;14.21;73.68;102214.59;5074985;28;20255;-78
2022/07/08 06:39:50;;;;;;;3.30;1.20;;;;;;;14.23;73.10;102239.09;5073527;28;20228;-78
2022/07/08 06:42:19;;;;;;;6.33;1.50;;;;;;;14.38;73.38;102259.19;5072394;28;20575;-78
2022/07/08 06:44:46;;;;;;;9.90;1.77;;;;;;;14.32;72.97;102269.72;5072983;28;20207;-80
2022/07/08 06:47:13;;;;;;;2.87;1.20;;;;;;;14.41;72.90;102286.31;5068777;28;20228;-78
2022/07/08 06:49:40;;;;;;;2.33;1.00;;;;;;;14.37;72.64;102281.06;5069898;28;20192;-77
2022/07/08 06:52:06;;;;;;;4.87;1.20;;;;;;;14.39;72.64;102276.66;5067646;28;20201;-78
2022/07/08 06:54:36;;;;;;;4.00;1.40;;;;;;;14.47;72.79;102264.38;5071143;28;20513;-78
2022/07/08 06:57:03;;;;;;;6.03;1.50;;;;;;;14.54;72.64;102271.34;5074103;28;20440;-79
2022/07/08 06:59:29;;;;;;;2.53;1.47;;;;;;;14.56;71.35;102306.41;5073865;28;20228;-80
2022/07/08 07:01:56;;;;;;;3.57;1.40;;;;;;;14.68;70.10;102329.97;5076006;28;20200;-81
2022/07/08 07:04:24;;;;;;;5.90;1.73;;;;;;;14.90;71.14;102337.75;5071023;28;20428;-82
2022/07/08 07:06:50;;;;;;;5.43;2.10;;;;;;;14.83;70.42;102342.16;5082089;28;20464;-79
2022/07/08 07:09:16;;;;;;;4.33;2.00;;;;;;;14.84;70.37;102353.56;5101963;28;20207;-80
2022/07/08 07:11:43;;;;;;;6.13;1.70;;;;;;;14.89;70.94;102331.63;5111640;28;20219;-81
2022/07/08 07:14:09;;;;;;;4.23;1.50;;;;;;;15.05;69.34;102344.66;5104117;28;20212;-81
2022/07/08 07:16:36;;;;;;;3.37;1.07;;;;;;;14.97;68.37;102368.38;5104100;28;20211;-80
2022/07/08 07:19:02;;;;;;;4.30;1.00;;;;;;;15.07;68.66;102406.03;5104202;28;20231;-81
2022/07/08 07:21:30;;;;;;;4.53;1.20;;;;;;;15.22;69.30;102394.50;5105727;28;20202;-80
2022/07/08 07:23:57;;;;;;;3.27;1.30;;;;;;;15.07;67.68;102425.31;5103865;28;20211;-82
2022/07/08 07:26:23;;;;;;;3.63;1.17;;;;;;;15.04;65.80;102498.97;5104921;28;20216;-81
2022/07/08 07:28:50;;;;;;;5.10;1.37;;;;;;;15.15;67.53;102493.66;5105148;28;20228;-80
2022/07/08 07:31:16;;;;;;;5.47;1.53;;;;;;;15.18;68.20;102442.78;5092113;28;20209;-80
2022/07/08 07:33:42;;;;;;;3.63;1.43;;;;;;;15.31;69.07;102414.66;5080571;28;20204;-81
2022/07/08 07:36:09;;;;;;;4.00;1.43;;;;;;;15.48;69.92;102383.81;5083412;28;20243;-80
2022/07/08 07:38:37;;;;;;;2.77;1.23;;;;;;;15.38;68.76;102388.28;5098480;28;20248;-80
2022/07/08 07:41:04;;;;;;;5.10;1.60;;;;;;;15.26;67.07;102425.19;5103027;28;20633;-82
2022/07/08 07:43:30;;;;;;;7.50;1.20;;;;;;;15.20;66.57;102468.22;5101174;28;20626;-81
2022/07/08 07:45:57;;;;;;;2.00;0.90;;;;;;;15.27;65.68;102485.69;5101691;28;20626;-81
2022/07/08 07:48:23;;;;;;;4.17;1.17;;;;;;;15.16;66.09;102498.03;5104954;28;20365;-80
2022/07/08 07:50:50;;;;;;;2.70;1.30;;;;;;;15.27;66.50;102483.06;5103796;28;20258;-80
2022/07/08 07:53:16;;;;;;;4.40;1.47;;;;;;;15.49;66.01;102486.44;5105432;28;20211;-81
2022/07/08 07:55:44;;;;;;;4.40;1.33;;;;;;;15.64;66.46;102477.56;5104897;28;20220;-81
2022/07/08 07:58:10;;;;;;;3.53;1.20;;;;;;;15.65;67.50;102460.00;5103146;28;20235;-80
2022/07/08 08:00:37;;;;;;;3.23;0.90;;;;;;;15.43;65.80;102481.22;5104700;28;20231;-80
2022/07/08 08:03:04;;;;;;;5.73;1.53;;;;;;;15.47;66.19;102495.22;5104162;28;20264;-81
2022/07/08 08:05:30;;;;;;;3.60;1.20;;;;;;;15.51;65.75;102488.19;5102402;28;20204;-80
2022/07/08 08:07:57;;;;;;;4.23;1.13;;;;;;;15.77;65.78;102499.44;5094369;28;20216;-81
2022/07/08 08:10:23;;;;;;;3.83;1.50;;;;;;;15.96;65.52;102497.53;5100786;28;20648;-80
2022/07/08 08:12:51;;;;;;;4.27;1.60;;;;;;;16.12;66.03;102492.16;5104410;28;20293;-81
2022/07/08 08:15:17;;;;;;;4.03;1.30;;;;;;;16.21;64.94;102503.47;5103173;28;20223;-80
2022/07/08 08:17:44;;;;;;;3.00;1.17;;;;;;;16.34;65.58;102513.91;5104798;28;20235;-79
2022/07/08 08:20:13;;;;;;;4.20;1.20;;;;;;;16.45;64.54;102514.66;5104779;28;20227;-81
2022/07/08 08:22:40;;;;;;;3.70;1.20;;;;;;;16.58;64.39;102552.31;5102738;28;20211;-84
2022/07/08 08:25:07;;;;;;;4.23;1.63;;;;;;;16.59;65.43;102539.13;5099733;28;20260;-82
2022/07/08 08:27:34;;;;;;;4.77;1.60;;;;;;;16.38;63.40;102560.44;5100361;28;20227;-82
2022/07/08 08:30:01;;;;;;;3.67;1.20;;;;;;;16.35;64.55;102570.97;5099962;28;20203;-80
2022/07/08 08:32:28;;;;;;;6.13;1.50;;;;;;;16.38;65.08;102536.69;5099762;28;20692;-83
2022/07/08 08:34:54;;;;;;;7.07;1.73;;;;;;;16.47;63.54;102549.78;5100161;28;20250;-82
2022/07/08 08:37:25;;;;;;;5.20;1.77;;;;;;;16.61;63.50;102553.16;5097365;28;20216;-82
2022/07/08 08:39:51;;;;;;;5.47;1.40;;;;;;;16.84;63.36;102546.78;5085226;28;20208;-81
2022/07/08 08:42:19;;;;;;;3.77;1.50;;;;;;;17.06;64.30;102550.06;5100227;28;20605;-82
2022/07/08 08:44:49;;;;;;;3.60;1.10;;;;;;;16.73;61.98;102569.75;5099163;28;20856;-82
2022/07/08 08:47:17;;;;;;;2.73;1.10;;;;;;;16.56;62.69;102596.28;5099305;28;20230;-81
2022/07/08 08:49:44;;;;;;;4.13;1.43;;;;;;;16.78;63.20;102566.16;5099627;28;20200;-82
2022/07/08 08:52:11;;;;;;;4.20;1.10;;;;;;;16.54;62.39;102588.38;5100233;28;20230;-81
2022/07/08 08:54:38;;;;;;;3.07;1.13;;;;;;;16.61;62.36;102547.00;5099824;28;20703;-81
2022/07/08 08:57:06;;;;;;;5.30;1.27;;;;;;;16.59;62.36;102573.41;5100766;28;20222;-79
2022/07/08 08:59:34;;;;;;;3.27;1.10;;;;;;;16.59;62.47;102578.69;5082264;28;20225;-81
2022/07/08 09:02:01;;;;;;;3.53;1.27;;;;;;;16.75;62.60;102574.13;5083054;28;20209;-81
2022/07/08 09:04:31;;;;;;;5.17;1.30;;;;;;;17.03;62.51;102540.41;5085691;28;20210;-80
2022/07/08 09:07:00;;;;;;;2.37;1.20;;;;;;;17.22;62.40;102563.94;5091950;28;20205;-81
2022/07/08 09:09:27;;;;;;;5.87;1.67;;;;;;;17.27;60.91;102572.69;5095892;28;20666;-82
2022/07/08 09:11:53;;;;;;;3.97;1.13;;;;;;;17.13;60.68;102603.66;5098411;28;20628;-81
2022/07/08 09:14:21;;;;;;;2.03;1.00;;;;;;;17.05;58.60;102609.88;5106794;28;20204;-80
2022/07/08 09:17:08;;;;;;;3.50;1.17;;;;;;;17.03;60.77;102634.53;5102210;28;20214;-79
2022/07/08 09:19:37;;;;;;;5.40;1.17;;;;;;;16.99;60.31;102603.81;5105168;28;20233;-79
2022/07/08 09:22:05;;;;;;;2.83;1.30;;;;;;;17.24;61.14;102599.09;5106546;28;20282;-79
2022/07/08 09:24:31;;;;;;;4.73;1.73;;;;;;;17.26;59.67;102627.25;5104768;28;20230;-77
2022/07/08 09:27:03;;;;;;;5.57;1.47;;;;;;;17.37;59.52;102642.94;5106547;28;20538;-79
2022/07/08 09:29:29;;;;;;;5.50;1.47;;;;;;;17.57;60.89;102628.63;5108161;28;20253;-79
2022/07/08 09:32:09;;;;;;;3.80;1.43;;;;;;;17.58;60.02;102615.41;5105683;28;20209;-78
2022/07/08 09:34:38;;;;;;;2.60;1.57;;;;;;;17.55;60.49;102626.00;5099402;28;20295;-78
2022/07/08 09:37:12;;;;;;;7.83;1.80;;;;;;;17.62;60.14;102601.28;5091429;28;20200;-78
2022/07/08 09:39:39;;;;;;;4.13;1.27;;;;;;;17.26;61.01;102629.88;5086162;28;20214;-78
2022/07/08 09:42:06;;;;;;;6.33;1.43;;;;;;;17.43;61.42;102578.63;5093830;28;20237;-77
2022/07/08 09:44:33;;;;;;;4.13;1.60;;;;;;;17.70;61.51;102573.84;5093608;28;20211;-77
2022/07/08 09:46:59;;;;;;;7.93;1.43;;;;;;;17.75;59.71;102593.16;5093748;28;20673;-78
2022/07/08 09:49:30;;;;;;;4.27;1.30;;;;;;;17.69;59.24;102632.88;5093255;28;20555;-78
2022/07/08 09:51:59;;;;;;;8.77;1.57;;;;;;;17.78;58.87;102622.16;5092974;28;20205;-78
2022/07/08 09:54:27;;;;;;;4.97;1.37;;;;;;;17.58;59.57;102627.72;5093948;28;20201;-77
2022/07/08 09:57:01;;;;;;;5.20;1.63;;;;;;;17.86;60.72;102583.34;5092989;28;20708;-77
2022/07/08 09:59:28;;;;;;;4.43;1.73;;;;;;;18.10;60.22;102576.81;5093164;28;20224;-77
2022/07/08 10:01:54;;;;;;;2.30;1.20;;;;;;;18.17;59.29;102601.34;5093782;28;20612;-78
2022/07/08 10:04:23;;;;;;;4.60;1.20;;;;;;;18.34;59.82;102583.47;5093788;28;20257;-77
2022/07/08 10:06:50;;;;;;;3.60;1.37;;;;;;;18.41;58.69;102610.66;5092257;28;20675;-78
2022/07/08 10:09:19;;;;;;;4.63;1.30;;;;;;;18.19;58.56;102629.50;5096877;28;20243;-79
2022/07/08 10:11:47;;;;;;;3.37;1.30;;;;;;;18.34;59.36;102627.53;5103011;28;20196;-78
2022/07/08 10:14:14;;;;;;;3.80;1.70;;;;;;;18.44;59.47;102619.41;5081483;28;20206;-77
2022/07/08 10:16:42;;;;;;;3.87;1.43;;;;;;;18.51;59.17;102601.66;5074464;28;20222;-79
2022/07/08 10:19:12;;;;;;;4.50;1.87;;;;;;;18.47;59.40;102618.47;5083410;28;20221;-79
2022/07/08 10:21:42;;;;;;;5.47;1.97;;;;;;;18.45;60.13;102593.84;5086569;28;20229;-79
2022/07/08 10:24:13;;;;;;;5.23;1.60;;;;;;;18.31;59.83;102582.63;5087636;28;20212;-79
2022/07/08 10:26:41;;;;;;;4.60;1.63;;;;;;;18.38;60.24;102586.94;5082603;28;20237;-79
2022/07/08 10:29:09;;;;;;;5.20;1.33;;;;;;;18.56;59.22;102589.25;5072704;28;20222;-79
2022/07/08 10:31:43;;;;;;;6.20;1.73;;;;;;;18.56;59.70;102609.53;5071571;28;20198;-79
2022/07/08 10:34:11;;;;;;;3.40;1.13;;;;;;;18.61;59.49;102603.28;5063495;28;20296;-78
2022/07/08 10:36:46;;;;;;;2.37;1.50;;;;;;;18.67;59.63;102602.25;5068376;28;20577;-78
2022/07/08 10:39:13;;;;;;;3.70;1.10;;;;;;;18.57;59.34;102608.63;5099816;28;20357;-79
2022/07/08 10:41:55;;;;;;;4.97;1.60;;;;;;;18.52;58.88;102606.06;5081599;28;20219;-78
2022/07/08 10:44:49;;;;;;;3.13;1.57;;;;;;;18.35;60.41;102600.19;5077127;28;20227;-78
2022/07/08 10:47:17;;;;;;;6.17;1.83;;;;;;;18.56;59.77;102572.50;5076126;28;20235;-79
2022/07/08 10:49:44;;;;;;;4.33;1.43;;;;;;;18.52;60.20;102578.75;5076480;28;20646;-78
2022/07/08 10:52:12;;;;;;;3.60;1.30;;;;;;;18.40;61.07;102548.97;5076553;28;20198;-79
2022/07/08 10:54:38;;;;;;;6.27;1.80;;;;;;;18.42;61.09;102546.31;5075214;28;20225;-78
2022/07/08 10:57:15;;;;;;;5.13;1.47;;;;;;;18.41;61.09;102537.50;5076490;28;20233;-78
2022/07/08 10:59:42;;;;;;;3.57;1.33;;;;;;;18.52;60.98;102542.59;5074674;28;20192;-79
2022/07/08 11:02:11;;;;;;;4.03;1.30;;;;;;;18.72;61.52;102530.75;5075349;28;20208;-78
2022/07/08 11:04:46;;;;;;;2.80;1.20;;;;;;;18.68;60.33;102532.59;5082428;28;20194;-77
2022/07/08 11:07:37;;;;;;;2.83;1.20;;;;;;;18.57;60.54;102547.78;5086163;28;20222;-77
2022/07/08 11:10:08;;;;;;;4.63;1.23;;;;;;;18.69;60.80;102552.88;5065487;28;20585;-78
2022/07/08 11:12:39;;;;;;;3.47;1.30;;;;;;;18.56;60.55;102567.22;5076337;28;20210;-78
2022/07/08 11:15:07;;;;;;;3.77;1.50;;;;;;;18.48;60.09;102562.06;5076560;28;20217;-78
2022/07/08 11:17:36;;;;;;;2.67;1.20;;;;;;;18.33;61.40;102560.53;5078820;28;20267;-79
2022/07/08 11:20:06;;;;;;;1.73;1.23;;;;;;;18.21;61.77;102542.25;5073923;28;20606;-78
2022/07/08 11:22:36;;;;;;;2.53;1.20;;;;;;;18.33;62.10;102530.59;5070273;28;20210;-78
2022/07/08 11:25:03;;;;;;;4.57;1.80;;;;;;;18.41;61.33;102512.81;5071030;28;20282;-78
2022/07/08 11:27:33;;;;;;;3.43;1.20;;;;;;;18.35;61.67;102527.00;5072124;28;20231;-78